sensor_id;sensor_type;location;lat;lon;timestamp;P1;durP1;ratioP1;P2;durP2;ratioP2
23266;SDS011;11802;53.160;8.214;2023-08-08T00:01:03;7.50;;;2.60;;
23266;SDS011;11802;53.160;8.214;2023-08-08T00:03:28;7.97;;;2.70;;
23266;SDS011;11802;53.160;8.214;2023-08-08T00:05:54;6.63;;;2.73;;
23266;SDS011;11802;53.160;8.214;2023-08-08T00:08:19;6.83;;;2.70;;
23266;SDS011;11802;53.160;8.214;2023-08-08T00:10:45;7.37;;;2.10;;
23266;SDS011;11802;53.160;8.214;2023-08-08T00:13:10;9.37;;;2.87;;
23266;SDS011;11802;53.160;8.214;2023-08-08T00:15:36;9.30;;;3.63;;
23266;SDS011;11802;53.160;8.214;2023-08-08T00:18:02;6.93;;;2.87;;
23266;SDS011;11802;53.160;8.214;2023-08-08T00:20:27;5.07;;;2.47;;
23266;SDS011;11802;53.160;8.214;2023-08-08T00:22:53;7.63;;;2.80;;
23266;SDS011;11802;53.160;8.214;2023-08-08T00:25:19;7.30;;;3.13;;
23266;SDS011;11802;53.160;8.214;2023-08-08T00:27:44;4.43;;;2.17;;
23266;SDS011;11802;53.160;8.214;2023-08-08T00:30:10;7.63;;;2.63;;
23266;SDS011;11802;53.160;8.214;2023-08-08T00:32:37;6.17;;;2.83;;
23266;SDS011;11802;53.160;8.214;2023-08-08T00:35:03;5.90;;;2.93;;
23266;SDS011;11802;53.160;8.214;2023-08-08T00:37:29;5.60;;;2.67;;
23266;SDS011;11802;53.160;8.214;2023-08-08T00:39:55;5.73;;;2.63;;
23266;SDS011;11802;53.160;8.214;2023-08-08T00:42:20;5.17;;;2.40;;
23266;SDS011;11802;53.160;8.214;2023-08-08T00:44:46;7.40;;;2.93;;
23266;SDS011;11802;53.160;8.214;2023-08-08T00:47:11;6.83;;;3.00;;
23266;SDS011;11802;53.160;8.214;2023-08-08T00:49:37;6.80;;;2.23;;
23266;SDS011;11802;53.160;8.214;2023-08-08T00:52:03;6.13;;;3.10;;
23266;SDS011;11802;53.160;8.214;2023-08-08T00:54:30;11.00;;;3.50;;
23266;SDS011;11802;53.160;8.214;2023-08-08T00:56:55;6.03;;;2.87;;
23266;SDS011;11802;53.160;8.214;2023-08-08T00:59:21;12.00;;;3.43;;
23266;SDS011;11802;53.160;8.214;2023-08-08T01:01:48;7.57;;;2.70;;
23266;SDS011;11802;53.160;8.214;2023-08-08T01:04:14;10.47;;;3.37;;
23266;SDS011;11802;53.160;8.214;2023-08-08T01:06:47;7.03;;;3.20;;
23266;SDS011;11802;53.160;8.214;2023-08-08T01:12:16;6.93;;;2.87;;
23266;SDS011;11802;53.160;8.214;2023-08-08T01:14:43;6.50;;;3.20;;
23266;SDS011;11802;53.160;8.214;2023-08-08T01:17:09;5.30;;;2.80;;
23266;SDS011;11802;53.160;8.214;2023-08-08T01:19:36;7.47;;;2.70;;
23266;SDS011;11802;53.160;8.214;2023-08-08T01:22:04;8.00;;;3.13;;
23266;SDS011;11802;53.160;8.214;2023-08-08T01:24:33;7.47;;;2.87;;
23266;SDS011;11802;53.160;8.214;2023-08-08T01:27:02;7.00;;;3.10;;
23266;SDS011;11802;53.160;8.214;2023-08-08T01:29:28;9.80;;;3.10;;
23266;SDS011;11802;53.160;8.214;2023-08-08T01:31:54;7.00;;;3.00;;
23266;SDS011;11802;53.160;8.214;2023-08-08T01:34:20;6.27;;;3.10;;
23266;SDS011;11802;53.160;8.214;2023-08-08T01:36:47;6.87;;;2.87;;
23266;SDS011;11802;53.160;8.214;2023-08-08T01:39:29;6.13;;;3.00;;
23266;SDS011;11802;53.160;8.214;2023-08-08T01:41:57;7.40;;;3.10;;
23266;SDS011;11802;53.160;8.214;2023-08-08T01:44:24;7.13;;;3.00;;
23266;SDS011;11802;53.160;8.214;2023-08-08T01:46:51;6.47;;;3.27;;
23266;SDS011;11802;53.160;8.214;2023-08-08T01:49:17;8.03;;;3.07;;
23266;SDS011;11802;53.160;8.214;2023-08-08T01:51:42;5.67;;;3.40;;
23266;SDS011;11802;53.160;8.214;2023-08-08T01:54:08;6.07;;;3.27;;
23266;SDS011;11802;53.160;8.214;2023-08-08T01:56:34;6.83;;;3.30;;
23266;SDS011;11802;53.160;8.214;2023-08-08T01:58:59;4.90;;;3.20;;
23266;SDS011;11802;53.160;8.214;2023-08-08T02:01:25;6.83;;;3.50;;
23266;SDS011;11802;53.160;8.214;2023-08-08T02:03:50;8.73;;;3.20;;
23266;SDS011;11802;53.160;8.214;2023-08-08T02:06:16;5.60;;;3.30;;
23266;SDS011;11802;53.160;8.214;2023-08-08T02:08:41;4.93;;;3.00;;
23266;SDS011;11802;53.160;8.214;2023-08-08T02:11:07;6.67;;;3.50;;
23266;SDS011;11802;53.160;8.214;2023-08-08T02:13:32;6.00;;;3.37;;
23266;SDS011;11802;53.160;8.214;2023-08-08T02:15:58;8.13;;;3.13;;
23266;SDS011;11802;53.160;8.214;2023-08-08T02:18:24;9.97;;;3.50;;
23266;SDS011;11802;53.160;8.214;2023-08-08T02:20:49;6.03;;;3.30;;
23266;SDS011;11802;53.160;8.214;2023-08-08T02:23:15;8.67;;;4.10;;
23266;SDS011;11802;53.160;8.214;2023-08-08T02:25:40;8.93;;;4.20;;
23266;SDS011;11802;53.160;8.214;2023-08-08T02:28:06;4.90;;;3.10;;
23266;SDS011;11802;53.160;8.214;2023-08-08T02:30:31;8.93;;;4.00;;
23266;SDS011;11802;53.160;8.214;2023-08-08T02:32:57;5.40;;;3.93;;
23266;SDS011;11802;53.160;8.214;2023-08-08T02:35:23;7.40;;;3.77;;
23266;SDS011;11802;53.160;8.214;2023-08-08T02:37:48;7.77;;;4.07;;
23266;SDS011;11802;53.160;8.214;2023-08-08T02:40:14;5.93;;;4.00;;
23266;SDS011;11802;53.160;8.214;2023-08-08T02:42:39;8.03;;;4.30;;
23266;SDS011;11802;53.160;8.214;2023-08-08T02:45:05;7.40;;;4.07;;
23266;SDS011;11802;53.160;8.214;2023-08-08T02:47:31;8.77;;;4.40;;
23266;SDS011;11802;53.160;8.214;2023-08-08T02:49:57;10.67;;;4.40;;
23266;SDS011;11802;53.160;8.214;2023-08-08T02:52:22;7.40;;;4.23;;
23266;SDS011;11802;53.160;8.214;2023-08-08T02:54:47;8.03;;;4.30;;
23266;SDS011;11802;53.160;8.214;2023-08-08T02:57:13;10.77;;;4.50;;
23266;SDS011;11802;53.160;8.214;2023-08-08T02:59:38;9.70;;;4.50;;
23266;SDS011;11802;53.160;8.214;2023-08-08T03:02:04;12.87;;;4.30;;
23266;SDS011;11802;53.160;8.214;2023-08-08T03:04:30;9.53;;;3.83;;
23266;SDS011;11802;53.160;8.214;2023-08-08T03:06:55;11.23;;;4.57;;
23266;SDS011;11802;53.160;8.214;2023-08-08T03:09:21;8.07;;;4.53;;
23266;SDS011;11802;53.160;8.214;2023-08-08T03:11:47;8.33;;;4.23;;
23266;SDS011;11802;53.160;8.214;2023-08-08T03:14:12;9.20;;;4.17;;
23266;SDS011;11802;53.160;8.214;2023-08-08T03:16:38;7.40;;;4.40;;
23266;SDS011;11802;53.160;8.214;2023-08-08T03:19:04;8.17;;;4.10;;
23266;SDS011;11802;53.160;8.214;2023-08-08T03:21:30;8.33;;;4.27;;
23266;SDS011;11802;53.160;8.214;2023-08-08T03:23:56;12.07;;;4.73;;
23266;SDS011;11802;53.160;8.214;2023-08-08T03:26:22;7.60;;;3.67;;
23266;SDS011;11802;53.160;8.214;2023-08-08T03:28:47;5.60;;;3.87;;
23266;SDS011;11802;53.160;8.214;2023-08-08T03:31:15;7.67;;;4.40;;
23266;SDS011;11802;53.160;8.214;2023-08-08T03:33:42;8.90;;;4.90;;
23266;SDS011;11802;53.160;8.214;2023-08-08T03:36:07;10.03;;;3.80;;
23266;SDS011;11802;53.160;8.214;2023-08-08T03:38:33;11.57;;;4.20;;
23266;SDS011;11802;53.160;8.214;2023-08-08T03:40:59;8.50;;;3.70;;
23266;SDS011;11802;53.160;8.214;2023-08-08T03:43:24;6.07;;;3.33;;
23266;SDS011;11802;53.160;8.214;2023-08-08T03:45:50;5.53;;;3.37;;
23266;SDS011;11802;53.160;8.214;2023-08-08T03:48:15;7.90;;;3.80;;
23266;SDS011;11802;53.160;8.214;2023-08-08T03:50:41;7.83;;;3.87;;
23266;SDS011;11802;53.160;8.214;2023-08-08T03:53:06;5.83;;;3.77;;
23266;SDS011;11802;53.160;8.214;2023-08-08T03:55:32;6.43;;;4.20;;
23266;SDS011;11802;53.160;8.214;2023-08-08T03:57:58;7.93;;;4.07;;
23266;SDS011;11802;53.160;8.214;2023-08-08T04:00:24;11.00;;;4.00;;
23266;SDS011;11802;53.160;8.214;2023-08-08T04:02:49;7.17;;;3.77;;
23266;SDS011;11802;53.160;8.214;2023-08-08T04:05:15;9.70;;;4.70;;
23266;SDS011;11802;53.160;8.214;2023-08-08T04:07:40;7.30;;;4.00;;
23266;SDS011;11802;53.160;8.214;2023-08-08T04:10:06;8.63;;;4.10;;
23266;SDS011;11802;53.160;8.214;2023-08-08T04:12:32;7.77;;;4.40;;
23266;SDS011;11802;53.160;8.214;2023-08-08T04:14:58;9.07;;;4.17;;
23266;SDS011;11802;53.160;8.214;2023-08-08T04:17:23;9.00;;;3.93;;
23266;SDS011;11802;53.160;8.214;2023-08-08T04:19:49;12.47;;;4.50;;
23266;SDS011;11802;53.160;8.214;2023-08-08T04:22:15;9.67;;;4.40;;
23266;SDS011;11802;53.160;8.214;2023-08-08T04:24:41;9.03;;;4.10;;
23266;SDS011;11802;53.160;8.214;2023-08-08T04:27:06;8.07;;;3.90;;
23266;SDS011;11802;53.160;8.214;2023-08-08T04:29:32;7.60;;;4.07;;
23266;SDS011;11802;53.160;8.214;2023-08-08T04:31:57;9.70;;;4.13;;
23266;SDS011;11802;53.160;8.214;2023-08-08T04:34:23;6.83;;;3.60;;
23266;SDS011;11802;53.160;8.214;2023-08-08T04:36:48;11.27;;;4.10;;
23266;SDS011;11802;53.160;8.214;2023-08-08T04:39:14;10.13;;;3.80;;
23266;SDS011;11802;53.160;8.214;2023-08-08T04:41:39;10.63;;;3.87;;
23266;SDS011;11802;53.160;8.214;2023-08-08T04:44:05;9.47;;;4.23;;
23266;SDS011;11802;53.160;8.214;2023-08-08T04:46:30;8.93;;;4.17;;
23266;SDS011;11802;53.160;8.214;2023-08-08T04:48:56;7.07;;;3.30;;
23266;SDS011;11802;53.160;8.214;2023-08-08T04:51:21;9.07;;;4.30;;
23266;SDS011;11802;53.160;8.214;2023-08-08T04:53:47;7.70;;;3.90;;
23266;SDS011;11802;53.160;8.214;2023-08-08T04:56:12;6.57;;;3.37;;
23266;SDS011;11802;53.160;8.214;2023-08-08T04:58:38;7.73;;;3.80;;
23266;SDS011;11802;53.160;8.214;2023-08-08T05:01:03;7.13;;;2.90;;
23266;SDS011;11802;53.160;8.214;2023-08-08T05:03:29;7.30;;;3.60;;
23266;SDS011;11802;53.160;8.214;2023-08-08T05:05:54;8.77;;;3.50;;
23266;SDS011;11802;53.160;8.214;2023-08-08T05:08:20;8.73;;;3.97;;
23266;SDS011;11802;53.160;8.214;2023-08-08T05:10:46;7.63;;;3.10;;
23266;SDS011;11802;53.160;8.214;2023-08-08T05:13:12;9.33;;;3.73;;
23266;SDS011;11802;53.160;8.214;2023-08-08T05:15:38;6.70;;;2.83;;
23266;SDS011;11802;53.160;8.214;2023-08-08T05:18:04;9.47;;;3.83;;
23266;SDS011;11802;53.160;8.214;2023-08-08T05:20:29;4.40;;;2.67;;
23266;SDS011;11802;53.160;8.214;2023-08-08T05:22:55;8.43;;;3.47;;
23266;SDS011;11802;53.160;8.214;2023-08-08T05:25:20;8.63;;;3.17;;
23266;SDS011;11802;53.160;8.214;2023-08-08T05:27:46;6.13;;;3.00;;
23266;SDS011;11802;53.160;8.214;2023-08-08T05:30:11;7.40;;;3.03;;
23266;SDS011;11802;53.160;8.214;2023-08-08T05:32:37;6.33;;;2.97;;
23266;SDS011;11802;53.160;8.214;2023-08-08T05:35:03;7.80;;;2.90;;
23266;SDS011;11802;53.160;8.214;2023-08-08T05:37:29;10.17;;;3.17;;
23266;SDS011;11802;53.160;8.214;2023-08-08T05:39:55;7.50;;;2.97;;
23266;SDS011;11802;53.160;8.214;2023-08-08T05:42:20;7.67;;;3.30;;
23266;SDS011;11802;53.160;8.214;2023-08-08T05:44:46;9.93;;;3.57;;
23266;SDS011;11802;53.160;8.214;2023-08-08T05:47:12;4.78;;;3.10;;
23266;SDS011;11802;53.160;8.214;2023-08-08T05:49:38;8.37;;;2.90;;
23266;SDS011;11802;53.160;8.214;2023-08-08T05:52:04;9.77;;;3.33;;
23266;SDS011;11802;53.160;8.214;2023-08-08T05:54:30;12.20;;;2.97;;
23266;SDS011;11802;53.160;8.214;2023-08-08T05:56:55;6.10;;;2.53;;
23266;SDS011;11802;53.160;8.214;2023-08-08T05:59:21;6.80;;;2.43;;
23266;SDS011;11802;53.160;8.214;2023-08-08T06:01:46;9.53;;;2.57;;
23266;SDS011;11802;53.160;8.214;2023-08-08T06:04:12;4.00;;;2.20;;
23266;SDS011;11802;53.160;8.214;2023-08-08T06:06:38;5.78;;;2.00;;
23266;SDS011;11802;53.160;8.214;2023-08-08T06:09:04;5.03;;;1.83;;
23266;SDS011;11802;53.160;8.214;2023-08-08T06:11:30;9.48;;;2.35;;
23266;SDS011;11802;53.160;8.214;2023-08-08T06:13:55;7.18;;;1.70;;
23266;SDS011;11802;53.160;8.214;2023-08-08T06:16:21;7.13;;;1.63;;
23266;SDS011;11802;53.160;8.214;2023-08-08T06:18:47;4.72;;;1.90;;
23266;SDS011;11802;53.160;8.214;2023-08-08T06:21:12;5.30;;;2.10;;
23266;SDS011;11802;53.160;8.214;2023-08-08T06:23:38;5.20;;;1.60;;
23266;SDS011;11802;53.160;8.214;2023-08-08T06:26:04;4.38;;;1.70;;
23266;SDS011;11802;53.160;8.214;2023-08-08T06:28:30;7.05;;;1.63;;
23266;SDS011;11802;53.160;8.214;2023-08-08T06:30:56;7.30;;;1.77;;
23266;SDS011;11802;53.160;8.214;2023-08-08T06:33:22;7.75;;;1.58;;
23266;SDS011;11802;53.160;8.214;2023-08-08T06:35:48;5.20;;;1.52;;
23266;SDS011;11802;53.160;8.214;2023-08-08T06:38:14;3.55;;;1.30;;
23266;SDS011;11802;53.160;8.214;2023-08-08T06:40:39;6.25;;;1.45;;
23266;SDS011;11802;53.160;8.214;2023-08-08T06:43:05;4.10;;;1.23;;
23266;SDS011;11802;53.160;8.214;2023-08-08T06:45:30;4.05;;;1.17;;
23266;SDS011;11802;53.160;8.214;2023-08-08T06:47:56;4.88;;;1.50;;
23266;SDS011;11802;53.160;8.214;2023-08-08T06:50:22;5.28;;;1.45;;
23266;SDS011;11802;53.160;8.214;2023-08-08T06:52:49;4.30;;;1.30;;
23266;SDS011;11802;53.160;8.214;2023-08-08T06:55:15;6.43;;;1.20;;
23266;SDS011;11802;53.160;8.214;2023-08-08T06:57:41;4.00;;;1.13;;
23266;SDS011;11802;53.160;8.214;2023-08-08T07:00:06;4.82;;;1.25;;
23266;SDS011;11802;53.160;8.214;2023-08-08T07:02:33;6.53;;;1.88;;
23266;SDS011;11802;53.160;8.214;2023-08-08T07:04:59;5.57;;;1.58;;
23266;SDS011;11802;53.160;8.214;2023-08-08T07:07:24;5.10;;;1.30;;
23266;SDS011;11802;53.160;8.214;2023-08-08T07:09:50;4.32;;;1.20;;
23266;SDS011;11802;53.160;8.214;2023-08-08T07:12:15;7.63;;;1.60;;
23266;SDS011;11802;53.160;8.214;2023-08-08T07:14:41;4.88;;;1.25;;
23266;SDS011;11802;53.160;8.214;2023-08-08T07:17:07;7.57;;;1.45;;
23266;SDS011;11802;53.160;8.214;2023-08-08T07:19:32;5.28;;;1.63;;
23266;SDS011;11802;53.160;8.214;2023-08-08T07:21:58;11.88;;;2.50;;
23266;SDS011;11802;53.160;8.214;2023-08-08T07:24:23;8.60;;;1.70;;
23266;SDS011;11802;53.160;8.214;2023-08-08T07:26:53;7.63;;;1.70;;
23266;SDS011;11802;53.160;8.214;2023-08-08T07:29:23;8.05;;;1.63;;
23266;SDS011;11802;53.160;8.214;2023-08-08T07:31:48;6.53;;;2.05;;
23266;SDS011;11802;53.160;8.214;2023-08-08T07:34:14;5.47;;;1.80;;
23266;SDS011;11802;53.160;8.214;2023-08-08T07:36:39;7.07;;;1.50;;
23266;SDS011;11802;53.160;8.214;2023-08-08T07:39:05;4.40;;;1.63;;
23266;SDS011;11802;53.160;8.214;2023-08-08T07:41:30;8.05;;;1.77;;
23266;SDS011;11802;53.160;8.214;2023-08-08T07:43:56;4.55;;;1.40;;
23266;SDS011;11802;53.160;8.214;2023-08-08T07:46:22;6.28;;;1.65;;
23266;SDS011;11802;53.160;8.214;2023-08-08T07:48:47;3.88;;;1.67;;
23266;SDS011;11802;53.160;8.214;2023-08-08T07:51:13;9.30;;;2.00;;
23266;SDS011;11802;53.160;8.214;2023-08-08T07:53:38;8.45;;;2.08;;
23266;SDS011;11802;53.160;8.214;2023-08-08T07:56:04;7.05;;;1.45;;
23266;SDS011;11802;53.160;8.214;2023-08-08T07:58:31;7.25;;;1.80;;
23266;SDS011;11802;53.160;8.214;2023-08-08T08:00:57;6.22;;;1.38;;
23266;SDS011;11802;53.160;8.214;2023-08-08T08:03:23;6.97;;;1.50;;
23266;SDS011;11802;53.160;8.214;2023-08-08T08:05:50;4.72;;;1.30;;
23266;SDS011;11802;53.160;8.214;2023-08-08T08:08:16;4.28;;;0.93;;
23266;SDS011;11802;53.160;8.214;2023-08-08T08:10:41;5.80;;;1.60;;
23266;SDS011;11802;53.160;8.214;2023-08-08T08:13:07;3.13;;;1.10;;
23266;SDS011;11802;53.160;8.214;2023-08-08T08:15:33;3.80;;;1.10;;
23266;SDS011;11802;53.160;8.214;2023-08-08T08:17:58;5.35;;;1.10;;
23266;SDS011;11802;53.160;8.214;2023-08-08T08:20:24;6.22;;;1.40;;
23266;SDS011;11802;53.160;8.214;2023-08-08T08:22:50;4.95;;;1.10;;
23266;SDS011;11802;53.160;8.214;2023-08-08T08:25:15;6.22;;;1.23;;
23266;SDS011;11802;53.160;8.214;2023-08-08T08:27:41;5.28;;;1.30;;
23266;SDS011;11802;53.160;8.214;2023-08-08T08:30:07;4.35;;;1.00;;
23266;SDS011;11802;53.160;8.214;2023-08-08T08:32:35;8.20;;;1.30;;
23266;SDS011;11802;53.160;8.214;2023-08-08T08:35:01;4.75;;;1.10;;
23266;SDS011;11802;53.160;8.214;2023-08-08T08:37:29;5.18;;;1.08;;
23266;SDS011;11802;53.160;8.214;2023-08-08T08:39:55;5.70;;;1.08;;
23266;SDS011;11802;53.160;8.214;2023-08-08T08:42:20;4.93;;;1.00;;
23266;SDS011;11802;53.160;8.214;2023-08-08T08:44:47;5.63;;;1.25;;
23266;SDS011;11802;53.160;8.214;2023-08-08T08:47:14;5.43;;;0.93;;
23266;SDS011;11802;53.160;8.214;2023-08-08T08:49:44;4.97;;;1.17;;
23266;SDS011;11802;53.160;8.214;2023-08-08T08:52:11;2.63;;;0.80;;
23266;SDS011;11802;53.160;8.214;2023-08-08T08:54:36;4.13;;;0.70;;
23266;SDS011;11802;53.160;8.214;2023-08-08T08:57:03;3.13;;;0.70;;
23266;SDS011;11802;53.160;8.214;2023-08-08T08:59:28;4.28;;;0.80;;
23266;SDS011;11802;53.160;8.214;2023-08-08T09:01:54;4.80;;;0.77;;
23266;SDS011;11802;53.160;8.214;2023-08-08T09:04:21;3.08;;;1.00;;
23266;SDS011;11802;53.160;8.214;2023-08-08T09:06:47;1.95;;;0.70;;
23266;SDS011;11802;53.160;8.214;2023-08-08T09:09:14;5.43;;;0.80;;
23266;SDS011;11802;53.160;8.214;2023-08-08T09:11:42;4.72;;;1.02;;
23266;SDS011;11802;53.160;8.214;2023-08-08T09:14:20;3.63;;;0.80;;
23266;SDS011;11802;53.160;8.214;2023-08-08T09:16:48;5.07;;;0.93;;
23266;SDS011;11802;53.160;8.214;2023-08-08T09:19:14;3.05;;;0.70;;
23266;SDS011;11802;53.160;8.214;2023-08-08T09:21:40;6.25;;;1.02;;
23266;SDS011;11802;53.160;8.214;2023-08-08T09:24:06;2.67;;;0.98;;
23266;SDS011;11802;53.160;8.214;2023-08-08T09:26:32;3.08;;;0.68;;
23266;SDS011;11802;53.160;8.214;2023-08-08T09:28:59;4.70;;;0.98;;
23266;SDS011;11802;53.160;8.214;2023-08-08T09:31:25;3.92;;;0.85;;
23266;SDS011;11802;53.160;8.214;2023-08-08T09:33:51;2.60;;;0.82;;
23266;SDS011;11802;53.160;8.214;2023-08-08T09:36:19;2.85;;;0.98;;
23266;SDS011;11802;53.160;8.214;2023-08-08T09:38:44;3.78;;;0.88;;
23266;SDS011;11802;53.160;8.214;2023-08-08T09:41:11;6.95;;;0.75;;
23266;SDS011;11802;53.160;8.214;2023-08-08T09:43:36;2.30;;;0.65;;
23266;SDS011;11802;53.160;8.214;2023-08-08T09:46:02;6.28;;;1.00;;
23266;SDS011;11802;53.160;8.214;2023-08-08T09:48:31;4.65;;;0.80;;
23266;SDS011;11802;53.160;8.214;2023-08-08T09:50:58;4.63;;;1.00;;
23266;SDS011;11802;53.160;8.214;2023-08-08T09:53:25;4.35;;;0.90;;
23266;SDS011;11802;53.160;8.214;2023-08-08T09:55:52;4.28;;;0.98;;
23266;SDS011;11802;53.160;8.214;2023-08-08T09:58:19;2.63;;;0.80;;
23266;SDS011;11802;53.160;8.214;2023-08-08T10:00:45;5.03;;;1.27;;
23266;SDS011;11802;53.160;8.214;2023-08-08T10:03:11;3.00;;;1.08;;
23266;SDS011;11802;53.160;8.214;2023-08-08T10:05:37;4.85;;;0.90;;
23266;SDS011;11802;53.160;8.214;2023-08-08T10:08:03;3.40;;;0.77;;
23266;SDS011;11802;53.160;8.214;2023-08-08T10:10:29;2.20;;;0.80;;
23266;SDS011;11802;53.160;8.214;2023-08-08T10:12:55;4.15;;;0.75;;
23266;SDS011;11802;53.160;8.214;2023-08-08T10:15:25;6.93;;;0.90;;
23266;SDS011;11802;53.160;8.214;2023-08-08T10:17:53;1.52;;;0.70;;
23266;SDS011;11802;53.160;8.214;2023-08-08T10:20:24;3.40;;;1.00;;
23266;SDS011;11802;53.160;8.214;2023-08-08T10:22:51;2.60;;;1.02;;
23266;SDS011;11802;53.160;8.214;2023-08-08T10:25:22;4.50;;;0.88;;
23266;SDS011;11802;53.160;8.214;2023-08-08T10:27:50;4.05;;;0.80;;
23266;SDS011;11802;53.160;8.214;2023-08-08T10:30:26;3.03;;;0.90;;
23266;SDS011;11802;53.160;8.214;2023-08-08T10:32:51;4.10;;;1.05;;
23266;SDS011;11802;53.160;8.214;2023-08-08T10:35:17;4.03;;;1.08;;
23266;SDS011;11802;53.160;8.214;2023-08-08T10:37:51;5.90;;;0.80;;
23266;SDS011;11802;53.160;8.214;2023-08-08T10:40:20;3.97;;;0.70;;
23266;SDS011;11802;53.160;8.214;2023-08-08T10:42:46;5.63;;;0.75;;
23266;SDS011;11802;53.160;8.214;2023-08-08T10:45:13;5.18;;;0.70;;
23266;SDS011;11802;53.160;8.214;2023-08-08T10:47:40;9.50;;;1.05;;
23266;SDS011;11802;53.160;8.214;2023-08-08T10:50:08;6.32;;;1.00;;
23266;SDS011;11802;53.160;8.214;2023-08-08T10:55:24;3.38;;;0.73;;
23266;SDS011;11802;53.160;8.214;2023-08-08T10:57:55;4.45;;;1.05;;
23266;SDS011;11802;53.160;8.214;2023-08-08T11:00:29;4.03;;;0.95;;
23266;SDS011;11802;53.160;8.214;2023-08-08T11:02:58;3.80;;;1.00;;
23266;SDS011;11802;53.160;8.214;2023-08-08T11:05:24;5.57;;;0.93;;
23266;SDS011;11802;53.160;8.214;2023-08-08T11:07:51;4.18;;;1.13;;
23266;SDS011;11802;53.160;8.214;2023-08-08T11:10:17;3.45;;;1.00;;
23266;SDS011;11802;53.160;8.214;2023-08-08T11:12:51;4.35;;;1.38;;
23266;SDS011;11802;53.160;8.214;2023-08-08T11:15:21;3.88;;;1.00;;
23266;SDS011;11802;53.160;8.214;2023-08-08T11:17:48;6.18;;;1.10;;
23266;SDS011;11802;53.160;8.214;2023-08-08T11:20:14;4.97;;;1.20;;
23266;SDS011;11802;53.160;8.214;2023-08-08T11:22:39;3.38;;;1.20;;
23266;SDS011;11802;53.160;8.214;2023-08-08T11:25:05;8.13;;;1.70;;
23266;SDS011;11802;53.160;8.214;2023-08-08T11:27:32;5.47;;;1.40;;
23266;SDS011;11802;53.160;8.214;2023-08-08T11:29:58;5.88;;;1.20;;
23266;SDS011;11802;53.160;8.214;2023-08-08T11:32:25;3.70;;;0.95;;
23266;SDS011;11802;53.160;8.214;2023-08-08T11:34:53;4.93;;;1.08;;
23266;SDS011;11802;53.160;8.214;2023-08-08T11:37:20;3.60;;;1.27;;
23266;SDS011;11802;53.160;8.214;2023-08-08T11:39:46;4.60;;;1.02;;
23266;SDS011;11802;53.160;8.214;2023-08-08T11:42:12;4.80;;;0.88;;
23266;SDS011;11802;53.160;8.214;2023-08-08T11:44:38;6.68;;;1.00;;
23266;SDS011;11802;53.160;8.214;2023-08-08T11:47:03;3.78;;;1.00;;
23266;SDS011;11802;53.160;8.214;2023-08-08T11:49:29;4.93;;;1.30;;
23266;SDS011;11802;53.160;8.214;2023-08-08T11:51:55;4.80;;;1.00;;
23266;SDS011;11802;53.160;8.214;2023-08-08T11:54:21;6.43;;;1.40;;
23266;SDS011;11802;53.160;8.214;2023-08-08T11:56:46;4.22;;;1.00;;
23266;SDS011;11802;53.160;8.214;2023-08-08T11:59:12;2.55;;;1.13;;
23266;SDS011;11802;53.160;8.214;2023-08-08T12:01:38;5.57;;;1.13;;
23266;SDS011;11802;53.160;8.214;2023-08-08T12:04:09;5.65;;;1.15;;
23266;SDS011;11802;53.160;8.214;2023-08-08T12:06:38;6.78;;;1.50;;
23266;SDS011;11802;53.160;8.214;2023-08-08T12:09:04;5.47;;;1.65;;
23266;SDS011;11802;53.160;8.214;2023-08-08T12:11:33;5.03;;;1.10;;
23266;SDS011;11802;53.160;8.214;2023-08-08T12:13:59;8.20;;;1.42;;
23266;SDS011;11802;53.160;8.214;2023-08-08T12:16:27;4.85;;;1.20;;
23266;SDS011;11802;53.160;8.214;2023-08-08T12:18:57;5.82;;;1.20;;
23266;SDS011;11802;53.160;8.214;2023-08-08T12:21:25;5.95;;;1.30;;
23266;SDS011;11802;53.160;8.214;2023-08-08T12:23:50;2.80;;;1.20;;
23266;SDS011;11802;53.160;8.214;2023-08-08T12:26:16;5.38;;;1.20;;
23266;SDS011;11802;53.160;8.214;2023-08-08T12:28:42;4.45;;;1.20;;
23266;SDS011;11802;53.160;8.214;2023-08-08T12:31:08;3.30;;;0.82;;
23266;SDS011;11802;53.160;8.214;2023-08-08T12:33:33;4.10;;;0.93;;
23266;SDS011;11802;53.160;8.214;2023-08-08T12:35:59;5.50;;;1.33;;
23266;SDS011;11802;53.160;8.214;2023-08-08T12:38:25;4.00;;;0.95;;
23266;SDS011;11802;53.160;8.214;2023-08-08T12:40:50;4.80;;;1.20;;
23266;SDS011;11802;53.160;8.214;2023-08-08T12:43:16;4.53;;;1.23;;
23266;SDS011;11802;53.160;8.214;2023-08-08T12:45:45;5.60;;;1.05;;
23266;SDS011;11802;53.160;8.214;2023-08-08T12:48:11;5.07;;;1.20;;
23266;SDS011;11802;53.160;8.214;2023-08-08T12:50:37;3.75;;;1.17;;
23266;SDS011;11802;53.160;8.214;2023-08-08T12:53:03;5.47;;;1.20;;
23266;SDS011;11802;53.160;8.214;2023-08-08T12:55:29;5.80;;;1.45;;
23266;SDS011;11802;53.160;8.214;2023-08-08T12:57:55;3.95;;;1.00;;
23266;SDS011;11802;53.160;8.214;2023-08-08T13:00:21;4.07;;;0.90;;
23266;SDS011;11802;53.160;8.214;2023-08-08T13:02:47;2.67;;;0.90;;
23266;SDS011;11802;53.160;8.214;2023-08-08T13:05:12;10.52;;;1.20;;
23266;SDS011;11802;53.160;8.214;2023-08-08T13:07:38;4.57;;;0.70;;
23266;SDS011;11802;53.160;8.214;2023-08-08T13:10:03;7.25;;;1.65;;
23266;SDS011;11802;53.160;8.214;2023-08-08T13:12:29;4.75;;;1.10;;
23266;SDS011;11802;53.160;8.214;2023-08-08T13:14:55;5.93;;;1.33;;
23266;SDS011;11802;53.160;8.214;2023-08-08T13:17:21;4.38;;;0.85;;
23266;SDS011;11802;53.160;8.214;2023-08-08T13:19:46;6.43;;;1.05;;
23266;SDS011;11802;53.160;8.214;2023-08-08T13:22:12;5.53;;;1.30;;
23266;SDS011;11802;53.160;8.214;2023-08-08T13:24:38;5.82;;;1.38;;
23266;SDS011;11802;53.160;8.214;2023-08-08T13:27:04;2.55;;;0.90;;
23266;SDS011;11802;53.160;8.214;2023-08-08T13:29:29;4.45;;;0.82;;
23266;SDS011;11802;53.160;8.214;2023-08-08T13:31:55;4.55;;;0.90;;
23266;SDS011;11802;53.160;8.214;2023-08-08T13:34:21;4.28;;;0.90;;
23266;SDS011;11802;53.160;8.214;2023-08-08T13:36:46;4.10;;;0.85;;
23266;SDS011;11802;53.160;8.214;2023-08-08T13:39:12;5.28;;;1.00;;
23266;SDS011;11802;53.160;8.214;2023-08-08T13:41:38;4.07;;;0.90;;
23266;SDS011;11802;53.160;8.214;2023-08-08T13:44:04;3.15;;;0.93;;
23266;SDS011;11802;53.160;8.214;2023-08-08T13:46:29;5.82;;;1.15;;
23266;SDS011;11802;53.160;8.214;2023-08-08T13:48:55;3.80;;;0.82;;
23266;SDS011;11802;53.160;8.214;2023-08-08T13:51:20;4.10;;;1.38;;
23266;SDS011;11802;53.160;8.214;2023-08-08T13:53:46;4.40;;;1.20;;
23266;SDS011;11802;53.160;8.214;2023-08-08T13:56:14;5.82;;;1.00;;
23266;SDS011;11802;53.160;8.214;2023-08-08T13:58:40;6.25;;;1.30;;
23266;SDS011;11802;53.160;8.214;2023-08-08T14:01:05;5.25;;;1.27;;
23266;SDS011;11802;53.160;8.214;2023-08-08T14:03:31;8.27;;;1.45;;
23266;SDS011;11802;53.160;8.214;2023-08-08T14:05:57;6.05;;;1.25;;
23266;SDS011;11802;53.160;8.214;2023-08-08T14:08:22;5.50;;;1.10;;
23266;SDS011;11802;53.160;8.214;2023-08-08T14:10:48;5.20;;;1.10;;
23266;SDS011;11802;53.160;8.214;2023-08-08T14:13:14;1.73;;;0.70;;
23266;SDS011;11802;53.160;8.214;2023-08-08T14:15:39;3.28;;;0.85;;
23266;SDS011;11802;53.160;8.214;2023-08-08T14:18:05;8.82;;;1.25;;
23266;SDS011;11802;53.160;8.214;2023-08-08T14:20:31;4.63;;;1.15;;
23266;SDS011;11802;53.160;8.214;2023-08-08T14:22:56;5.05;;;1.10;;
23266;SDS011;11802;53.160;8.214;2023-08-08T14:25:22;5.88;;;0.88;;
23266;SDS011;11802;53.160;8.214;2023-08-08T14:27:48;6.75;;;0.95;;
23266;SDS011;11802;53.160;8.214;2023-08-08T14:30:13;6.68;;;1.00;;
23266;SDS011;11802;53.160;8.214;2023-08-08T14:32:39;5.25;;;1.00;;
23266;SDS011;11802;53.160;8.214;2023-08-08T14:35:05;2.75;;;0.90;;
23266;SDS011;11802;53.160;8.214;2023-08-08T14:37:31;4.82;;;1.10;;
23266;SDS011;11802;53.160;8.214;2023-08-08T14:39:57;5.95;;;1.10;;
23266;SDS011;11802;53.160;8.214;2023-08-08T14:42:22;3.38;;;0.88;;
23266;SDS011;11802;53.160;8.214;2023-08-08T14:44:48;5.30;;;1.33;;
23266;SDS011;11802;53.160;8.214;2023-08-08T14:47:14;4.00;;;0.90;;